createdAt,value
2023-03-13T00:01:37.621Z,14.26
2023-03-13T00:04:06.471Z,14.25
2023-03-13T00:06:37.687Z,14.23
2023-03-13T00:09:10.679Z,14.21
2023-03-13T00:11:39.755Z,14.20
2023-03-13T00:14:09.915Z,14.18
2023-03-13T00:16:39.757Z,14.18
2023-03-13T00:19:09.442Z,14.19
2023-03-13T00:21:38.723Z,14.18
2023-03-13T00:24:12.262Z,14.18
2023-03-13T00:26:40.687Z,14.18
2023-03-13T00:29:09.253Z,14.16
2023-03-13T00:31:37.707Z,14.15
2023-03-13T00:34:06.703Z,14.13
2023-03-13T00:36:36.718Z,14.11
2023-03-13T00:39:07.746Z,14.09
2023-03-13T00:41:37.692Z,14.07
2023-03-13T00:44:06.194Z,14.07
2023-03-13T00:46:34.763Z,14.07
2023-03-13T00:49:03.551Z,14.06
2023-03-13T00:51:32.717Z,14.02
2023-03-13T00:54:01.620Z,13.98
2023-03-13T00:56:31.532Z,13.93
2023-03-13T00:59:02.444Z,13.90
2023-03-13T01:01:33.135Z,13.84
2023-03-13T01:04:04.364Z,13.79
2023-03-13T01:06:35.876Z,13.74
2023-03-13T01:09:06.556Z,13.69
2023-03-13T01:11:40.100Z,13.66
2023-03-13T01:14:11.276Z,13.64
2023-03-13T01:16:40.332Z,13.64
2023-03-13T01:19:13.116Z,13.62
2023-03-13T01:21:42.663Z,13.62
2023-03-13T01:24:11.464Z,13.58
2023-03-13T01:26:41.522Z,13.56
2023-03-13T01:29:09.992Z,13.53
2023-03-13T01:31:39.130Z,13.49
2023-03-13T01:34:08.205Z,13.46
2023-03-13T01:36:38.273Z,13.43
2023-03-13T01:39:08.107Z,13.40
2023-03-13T01:41:38.397Z,13.38
2023-03-13T01:44:20.879Z,13.33
2023-03-13T01:46:49.506Z,13.29
2023-03-13T01:49:23.470Z,13.24
2023-03-13T01:51:55.167Z,13.19
2023-03-13T01:54:27.411Z,13.15
2023-03-13T01:57:02.651Z,13.11
2023-03-13T01:59:36.230Z,13.06
2023-03-13T02:02:06.165Z,13.03
2023-03-13T02:04:40.768Z,12.98
2023-03-13T02:07:13.540Z,12.94
2023-03-13T02:09:46.501Z,12.90
2023-03-13T02:12:19.513Z,12.87
2023-03-13T02:14:52.662Z,12.83
2023-03-13T02:17:21.410Z,12.82
2023-03-13T02:19:52.380Z,12.81
2023-03-13T02:22:30.119Z,12.84
2023-03-13T02:25:10.831Z,12.87
2023-03-13T02:27:42.236Z,12.91
2023-03-13T02:30:13.529Z,12.94
2023-03-13T02:32:42.337Z,13.00
2023-03-13T02:35:14.644Z,13.04
2023-03-13T02:37:45.801Z,13.08
2023-03-13T02:40:19.306Z,13.13
2023-03-13T02:42:50.269Z,13.17
2023-03-13T02:45:20.045Z,13.18
2023-03-13T02:47:48.448Z,13.20
2023-03-13T02:50:17.664Z,13.20
2023-03-13T02:52:50.662Z,13.19
2023-03-13T02:55:23.976Z,13.17
2023-03-13T02:57:53.807Z,13.20
2023-03-13T03:00:26.703Z,13.18
2023-03-13T03:02:56.278Z,13.18
2023-03-13T03:05:24.901Z,13.18
2023-03-13T03:07:53.584Z,13.18
2023-03-13T03:10:22.344Z,13.20
2023-03-13T03:12:50.759Z,13.21
2023-03-13T03:15:21.101Z,13.20
2023-03-13T03:17:49.479Z,13.22
2023-03-13T03:20:18.005Z,13.24
2023-03-13T03:22:46.530Z,13.25
2023-03-13T03:25:16.044Z,13.25
2023-03-13T03:27:44.492Z,13.27
2023-03-13T03:30:14.062Z,13.28
2023-03-13T03:32:44.025Z,13.30
2023-03-13T03:35:12.607Z,13.32
2023-03-13T03:37:41.103Z,13.34
2023-03-13T03:40:11.165Z,13.35
2023-03-13T03:42:39.619Z,13.36
2023-03-13T03:45:09.822Z,13.38
2023-03-13T03:47:38.262Z,13.37
2023-03-13T03:50:11.099Z,13.38
2023-03-13T03:52:40.053Z,13.38
2023-03-13T03:55:09.756Z,13.38
2023-03-13T03:57:38.202Z,13.38
2023-03-13T04:00:14.112Z,13.37
2023-03-13T04:02:42.647Z,13.37
2023-03-13T04:05:12.750Z,13.38
2023-03-13T04:07:41.176Z,13.41
2023-03-13T04:10:11.515Z,13.42
2023-03-13T04:12:39.996Z,13.45
2023-03-13T04:15:10.084Z,13.46
2023-03-13T04:17:38.610Z,13.48
2023-03-13T04:20:08.692Z,13.49
2023-03-13T04:22:38.491Z,13.48
2023-03-13T04:25:08.476Z,13.46
2023-03-13T04:27:36.916Z,13.44
2023-03-13T04:30:07.266Z,13.40
2023-03-13T04:32:35.716Z,13.36
2023-03-13T04:35:04.451Z,13.32
2023-03-13T04:37:32.962Z,13.30
2023-03-13T04:40:03.037Z,13.29
2023-03-13T04:42:31.499Z,13.29
2023-03-13T04:44:59.903Z,13.28
2023-03-13T04:47:28.447Z,13.28
2023-03-13T04:49:58.235Z,13.27
2023-03-13T04:52:26.740Z,13.25
2023-03-13T04:54:55.421Z,13.23
2023-03-13T04:57:25.322Z,13.23
2023-03-13T04:59:53.747Z,13.22
2023-03-13T05:02:22.196Z,13.21
2023-03-13T05:04:52.219Z,13.20
2023-03-13T05:07:20.777Z,13.20
2023-03-13T05:09:49.187Z,13.20
2023-03-13T05:12:17.627Z,13.19
2023-03-13T05:14:47.460Z,13.19
2023-03-13T05:17:15.900Z,13.18
2023-03-13T05:19:44.391Z,13.18
2023-03-13T05:22:12.921Z,13.18
2023-03-13T05:24:42.026Z,13.16
2023-03-13T05:27:10.622Z,13.13
2023-03-13T05:29:39.373Z,13.10
2023-03-13T05:32:09.485Z,13.06
2023-03-13T05:34:37.856Z,13.03
2023-03-13T05:37:06.392Z,13.02
2023-03-13T05:39:34.827Z,13.00
2023-03-13T05:42:03.337Z,12.97
2023-03-13T05:44:31.785Z,12.96
2023-03-13T05:47:00.652Z,12.94
2023-03-13T05:49:31.209Z,12.96
2023-03-13T05:51:59.638Z,12.97
2023-03-13T05:54:28.111Z,13.00
2023-03-13T05:56:56.540Z,13.03
2023-03-13T05:59:25.038Z,13.08
2023-03-13T06:01:53.497Z,13.12
2023-03-13T06:04:22.397Z,13.17
2023-03-13T06:06:52.341Z,13.22
2023-03-13T06:09:21.301Z,13.26
2023-03-13T06:11:49.784Z,13.30
2023-03-13T06:14:18.227Z,13.32
2023-03-13T06:16:46.987Z,13.34
2023-03-13T06:19:15.440Z,13.38
2023-03-13T06:21:44.255Z,13.40
2023-03-13T06:24:14.095Z,13.44
2023-03-13T06:26:42.630Z,13.47
2023-03-13T06:29:11.367Z,13.50
2023-03-13T06:31:39.933Z,13.57
2023-03-13T06:34:09.521Z,13.61
2023-03-13T06:36:38.188Z,13.68
2023-03-13T06:39:06.881Z,13.71
2023-03-13T06:41:36.840Z,13.76
2023-03-13T06:44:06.004Z,13.82
2023-03-13T06:46:34.637Z,13.85
2023-03-13T06:49:05.830Z,13.91
2023-03-13T06:51:34.972Z,13.94
2023-03-13T06:54:03.879Z,13.99
2023-03-13T06:56:32.370Z,14.09
2023-03-13T06:59:02.254Z,14.24
2023-03-13T07:01:30.896Z,14.41
2023-03-13T07:03:59.429Z,14.55
2023-03-13T07:06:28.397Z,14.68
2023-03-13T07:08:57.010Z,14.81
2023-03-13T07:11:26.038Z,14.95
2023-03-13T07:14:10.116Z,15.08
2023-03-13T07:16:45.838Z,15.28
2023-03-13T07:19:15.254Z,15.51
2023-03-13T07:21:44.277Z,15.70
2023-03-13T07:24:12.930Z,15.86
2023-03-13T07:26:51.210Z,16.00
2023-03-13T07:29:22.865Z,16.15
2023-03-13T07:31:52.701Z,16.29
2023-03-13T07:34:21.167Z,16.44
2023-03-13T07:36:49.611Z,16.62
2023-03-13T07:39:18.067Z,16.79
2023-03-13T07:41:46.881Z,16.95
2023-03-13T07:44:15.347Z,17.06
2023-03-13T07:46:44.180Z,17.18
2023-03-13T07:49:14.053Z,17.27
2023-03-13T07:51:44.401Z,17.35
2023-03-13T07:54:13.163Z,17.42
2023-03-13T07:56:41.931Z,17.48
2023-03-13T07:59:10.513Z,17.50
2023-03-13T08:01:39.018Z,17.50
2023-03-13T08:04:07.715Z,17.51
2023-03-13T08:06:37.578Z,17.51
2023-03-13T08:09:06.807Z,17.59
2023-03-13T08:11:35.488Z,17.74
2023-03-13T08:14:03.981Z,17.96
2023-03-13T08:16:36.049Z,18.13
2023-03-13T08:19:06.399Z,18.20
2023-03-13T08:21:38.435Z,18.22
2023-03-13T08:24:10.725Z,18.22
2023-03-13T08:26:41.674Z,18.23
2023-03-13T08:29:13.534Z,18.27
2023-03-13T08:31:47.653Z,18.33
2023-03-13T08:34:17.500Z,18.47
2023-03-13T08:36:47.825Z,18.59
2023-03-13T08:39:18.510Z,18.70
2023-03-13T08:41:47.130Z,18.78
2023-03-13T08:44:18.005Z,18.84
2023-03-13T08:46:49.124Z,18.87
2023-03-13T08:49:18.491Z,18.88
2023-03-13T08:51:48.370Z,18.89
2023-03-13T08:54:16.890Z,18.92
2023-03-13T08:56:45.388Z,19.01
2023-03-13T08:59:15.572Z,19.13
2023-03-13T09:01:44.095Z,19.24
2023-03-13T09:04:12.701Z,19.34
2023-03-13T09:06:41.408Z,19.44
2023-03-13T09:09:12.205Z,19.55
2023-03-13T09:11:41.587Z,19.65
2023-03-13T09:14:12.018Z,19.70
2023-03-13T09:16:40.492Z,19.72
2023-03-13T09:19:09.016Z,19.80
2023-03-13T09:21:37.969Z,19.89
2023-03-13T09:24:07.214Z,19.99
2023-03-13T09:26:37.164Z,20.14
2023-03-13T09:29:05.688Z,20.31
2023-03-13T09:31:35.461Z,20.49
2023-03-13T09:34:05.266Z,20.67
2023-03-13T09:36:33.961Z,20.85
2023-03-13T09:39:02.473Z,20.97
2023-03-13T09:41:41.479Z,20.97
2023-03-13T09:44:19.586Z,20.96
2023-03-13T09:47:00.484Z,20.97
2023-03-13T09:49:35.385Z,21.09
2023-03-13T09:52:17.189Z,21.16
2023-03-13T09:54:51.922Z,21.25
2023-03-13T09:57:31.925Z,21.35
2023-03-13T10:00:07.547Z,21.41
2023-03-13T10:02:38.155Z,21.51
2023-03-13T10:05:19.542Z,21.48
2023-03-13T10:07:48.363Z,21.41
2023-03-13T10:10:19.299Z,21.35
2023-03-13T10:12:53.946Z,21.35
2023-03-13T10:15:35.702Z,21.36
2023-03-13T10:18:18.209Z,21.39
2023-03-13T10:20:50.704Z,21.40
2023-03-13T10:23:28.716Z,21.41
2023-03-13T10:25:57.194Z,21.39
2023-03-13T10:28:27.528Z,21.37
2023-03-13T10:31:03.550Z,21.38
2023-03-13T10:33:35.785Z,21.48
2023-03-13T10:36:09.358Z,21.64
2023-03-13T10:38:49.850Z,21.73
2023-03-13T10:41:28.145Z,21.81
2023-03-13T10:44:04.626Z,21.84
2023-03-13T10:46:36.595Z,21.98
2023-03-13T10:49:14.447Z,22.15
2023-03-13T10:51:49.599Z,22.35
2023-03-13T10:54:25.519Z,22.47
2023-03-13T10:57:10.512Z,22.57
2023-03-13T10:59:47.152Z,22.64
2023-03-13T11:02:32.953Z,22.71
2023-03-13T11:05:02.016Z,22.77
2023-03-13T11:07:34.076Z,22.75
2023-03-13T11:10:17.984Z,22.75
2023-03-13T11:12:48.304Z,22.76
2023-03-13T11:15:24.667Z,22.78
2023-03-13T11:18:00.470Z,22.72
2023-03-13T11:20:33.422Z,22.69
2023-03-13T11:23:16.555Z,22.66
2023-03-13T11:25:58.697Z,22.66
2023-03-13T11:28:51.153Z,22.66
2023-03-13T11:31:29.707Z,22.76
2023-03-13T11:34:06.904Z,22.94
2023-03-13T11:36:40.100Z,23.09
2023-03-13T11:39:38.545Z,23.22
2023-03-13T11:42:24.947Z,23.33
2023-03-13T11:45:06.982Z,23.39
2023-03-13T11:47:52.584Z,23.37
2023-03-13T11:50:36.521Z,23.32
2023-03-13T11:53:44.853Z,23.22
2023-03-13T11:56:21.929Z,23.15
2023-03-13T11:59:06.098Z,23.03
2023-03-13T12:01:41.078Z,23.00
2023-03-13T12:04:19.597Z,22.97
2023-03-13T12:06:53.537Z,22.96
2023-03-13T12:09:30.145Z,22.87
2023-03-13T12:12:04.747Z,22.82
2023-03-13T12:14:38.909Z,22.80
2023-03-13T12:17:13.192Z,22.83
2023-03-13T12:19:51.525Z,22.86
2023-03-13T12:22:26.483Z,22.94
2023-03-13T12:25:05.035Z,23.02
2023-03-13T12:27:40.752Z,23.14
2023-03-13T12:30:25.657Z,23.31
2023-03-13T12:33:03.194Z,23.47
2023-03-13T12:35:34.377Z,23.57
2023-03-13T12:38:14.064Z,23.63
2023-03-13T12:40:50.670Z,23.73
2023-03-13T12:43:24.757Z,23.89
2023-03-13T12:46:20.528Z,24.08
2023-03-13T12:49:23.462Z,24.22
2023-03-13T12:52:32.653Z,24.21
2023-03-13T12:56:00.686Z,24.06
2023-03-13T12:58:40.946Z,24.03
2023-03-13T13:01:17.009Z,23.99
2023-03-13T13:03:56.490Z,23.92
2023-03-13T13:06:25.441Z,23.77
2023-03-13T13:09:16.332Z,23.59
2023-03-13T13:11:50.898Z,23.47
2023-03-13T13:15:12.380Z,23.31
2023-03-13T13:18:17.606Z,23.12
2023-03-13T13:20:49.647Z,23.03
2023-03-13T13:23:34.090Z,22.92
2023-03-13T13:26:52.325Z,22.75
2023-03-13T13:29:57.951Z,22.66
2023-03-13T13:32:45.834Z,22.57
2023-03-13T13:35:28.062Z,22.47
2023-03-13T13:38:36.974Z,22.35
2023-03-13T13:41:28.574Z,22.29
2023-03-13T13:44:30.961Z,22.25
2023-03-13T13:47:02.154Z,22.34
2023-03-13T13:49:55.724Z,22.43
2023-03-13T13:52:40.151Z,22.47
2023-03-13T13:55:44.258Z,22.43
2023-03-13T13:58:22.148Z,22.40
2023-03-13T14:00:56.633Z,22.42
2023-03-13T14:03:27.814Z,22.46
2023-03-13T14:06:01.372Z,22.51
2023-03-13T14:08:34.257Z,22.54
2023-03-13T14:11:20.878Z,22.57
2023-03-13T14:14:11.678Z,22.66
2023-03-13T14:16:44.242Z,22.77
2023-03-13T14:19:30.148Z,22.86
2023-03-13T14:22:03.587Z,23.01
2023-03-13T14:24:32.220Z,23.12
2023-03-13T14:27:01.309Z,23.12
2023-03-13T14:29:29.842Z,23.05
2023-03-13T14:32:01.098Z,22.95
2023-03-13T14:34:32.678Z,22.84
2023-03-13T14:37:17.747Z,22.72
2023-03-13T14:39:48.880Z,22.60
2023-03-13T14:42:19.780Z,22.50
2023-03-13T14:44:50.498Z,22.43
2023-03-13T14:47:30.601Z,22.38
2023-03-13T14:50:01.207Z,22.34
2023-03-13T14:52:32.461Z,22.28
2023-03-13T14:55:04.913Z,22.21
2023-03-13T14:57:35.088Z,22.17
2023-03-13T15:00:37.259Z,22.07
2023-03-13T15:03:25.771Z,22.02
2023-03-13T15:06:16.723Z,21.99
2023-03-13T15:08:47.474Z,22.00
2023-03-13T15:11:32.234Z,21.97
2023-03-13T15:14:00.892Z,21.98
2023-03-13T15:16:30.669Z,21.95
2023-03-13T15:19:00.583Z,21.91
2023-03-13T15:21:32.505Z,21.88
2023-03-13T15:24:03.722Z,21.83
2023-03-13T15:26:32.309Z,21.80
2023-03-13T15:29:00.864Z,21.76
2023-03-13T15:31:31.646Z,21.72
2023-03-13T15:34:03.192Z,21.66
2023-03-13T15:36:33.001Z,21.61
2023-03-13T15:39:01.443Z,21.54
2023-03-13T15:41:29.997Z,21.49
2023-03-13T15:43:58.488Z,21.45
2023-03-13T15:46:28.773Z,21.40
2023-03-13T15:48:57.399Z,21.37
2023-03-13T15:51:27.892Z,21.36
2023-03-13T15:53:56.388Z,21.34
2023-03-13T15:56:25.436Z,21.30
2023-03-13T15:58:54.052Z,21.24
2023-03-13T16:01:23.524Z,21.19
2023-03-13T16:03:52.416Z,21.13
2023-03-13T16:06:31.223Z,21.07
2023-03-13T16:09:02.749Z,20.98
2023-03-13T16:11:31.601Z,20.92
2023-03-13T16:14:00.533Z,20.85
2023-03-13T16:16:31.868Z,20.78
2023-03-13T16:19:04.260Z,20.72
2023-03-13T16:21:35.142Z,20.67
2023-03-13T16:24:05.527Z,20.61
2023-03-13T16:26:34.100Z,20.56
2023-03-13T16:29:02.768Z,20.50
2023-03-13T16:31:33.640Z,20.43
2023-03-13T16:34:03.552Z,20.39
2023-03-13T16:36:34.325Z,20.33
2023-03-13T16:39:08.459Z,20.25
2023-03-13T16:41:37.480Z,20.19
2023-03-13T16:44:06.514Z,20.12
2023-03-13T16:46:39.907Z,20.04
2023-03-13T16:51:40.611Z,19.92
2023-03-13T16:54:12.163Z,19.87
2023-03-13T16:56:43.454Z,19.81
2023-03-13T16:59:15.097Z,19.76
2023-03-13T17:01:44.239Z,19.74
2023-03-13T17:04:13.719Z,19.72
2023-03-13T17:06:44.899Z,19.68
2023-03-13T17:09:18.178Z,19.64
2023-03-13T17:11:46.973Z,19.60
2023-03-13T17:14:17.591Z,19.54
2023-03-13T17:16:47.593Z,19.48
2023-03-13T17:19:17.003Z,19.42
2023-03-13T17:21:45.792Z,19.37
2023-03-13T17:24:15.653Z,19.30
2023-03-13T17:26:44.924Z,19.24
2023-03-13T17:29:19.615Z,19.16
2023-03-13T17:31:48.309Z,19.13
2023-03-13T17:34:17.636Z,19.09
2023-03-13T17:36:48.898Z,19.01
2023-03-13T17:39:19.220Z,18.97
2023-03-13T17:41:48.670Z,18.93
2023-03-13T17:44:17.560Z,18.89
2023-03-13T17:46:48.473Z,18.84
2023-03-13T17:49:20.473Z,18.80
2023-03-13T17:51:51.578Z,18.77
2023-03-13T17:54:22.797Z,18.71
2023-03-13T17:56:52.647Z,18.65
2023-03-13T17:59:22.040Z,18.60
2023-03-13T18:01:51.949Z,18.56
2023-03-13T18:04:22.036Z,18.51
2023-03-13T18:06:52.213Z,18.46
2023-03-13T18:09:24.220Z,18.41
2023-03-13T18:11:53.898Z,18.38
2023-03-13T18:14:24.103Z,18.32
2023-03-13T18:16:57.497Z,18.26
2023-03-13T18:19:28.725Z,18.22
2023-03-13T18:21:59.270Z,18.17
2023-03-13T18:24:31.196Z,18.12
2023-03-13T18:27:01.696Z,18.07
2023-03-13T18:29:31.814Z,18.03
2023-03-13T18:32:02.078Z,17.99
2023-03-13T18:34:32.060Z,17.96
2023-03-13T18:37:04.289Z,17.93
2023-03-13T18:39:37.015Z,17.88
2023-03-13T18:42:11.117Z,17.86
2023-03-13T18:44:41.601Z,17.82
2023-03-13T18:47:16.440Z,17.79
2023-03-13T18:49:47.569Z,17.74
2023-03-13T18:52:18.120Z,17.71
2023-03-13T18:54:49.780Z,17.67
2023-03-13T18:57:20.910Z,17.61
2023-03-13T18:59:51.791Z,17.60
2023-03-13T19:02:22.572Z,17.56
2023-03-13T19:04:53.328Z,17.52
2023-03-13T19:07:28.424Z,17.47
2023-03-13T19:10:02.165Z,17.42
2023-03-13T19:12:33.056Z,17.38
2023-03-13T19:15:03.606Z,17.33
2023-03-13T19:17:33.498Z,17.29
2023-03-13T19:20:06.274Z,17.29
2023-03-13T19:22:36.570Z,17.29
2023-03-13T19:25:11.748Z,17.27
2023-03-13T19:27:42.917Z,17.29
2023-03-13T19:30:22.281Z,17.26
2023-03-13T19:32:53.367Z,17.30
2023-03-13T19:35:23.614Z,17.30
2023-03-13T19:37:56.965Z,17.29
2023-03-13T19:40:30.132Z,17.28
2023-03-13T19:43:00.718Z,17.28
2023-03-13T19:45:31.441Z,17.27
2023-03-13T19:48:03.436Z,17.28
2023-03-13T19:50:33.002Z,17.28
2023-03-13T19:53:03.478Z,17.27
2023-03-13T19:55:36.745Z,17.23
2023-03-13T19:58:10.637Z,17.25
2023-03-13T20:00:41.358Z,17.21
2023-03-13T20:03:12.186Z,17.18
2023-03-13T20:05:43.948Z,17.15
2023-03-13T20:08:14.324Z,17.11
2023-03-13T20:10:47.773Z,17.06
2023-03-13T20:13:21.421Z,17.03
2023-03-13T20:15:50.738Z,17.00
2023-03-13T20:18:21.532Z,16.98
2023-03-13T20:20:52.213Z,16.94
2023-03-13T20:23:21.779Z,16.93
2023-03-13T20:25:53.478Z,16.90
2023-03-13T20:28:24.175Z,16.87
2023-03-13T20:30:57.516Z,16.84
2023-03-13T20:33:27.610Z,16.84
2023-03-13T20:36:00.863Z,16.80
2023-03-13T20:38:33.167Z,16.79
2023-03-13T20:41:05.344Z,16.77
2023-03-13T20:43:37.572Z,16.78
2023-03-13T20:46:09.477Z,16.77
2023-03-13T20:48:41.699Z,16.75
2023-03-13T20:51:13.054Z,16.72
2023-03-13T20:53:44.646Z,16.71
2023-03-13T20:56:16.819Z,16.68
2023-03-13T20:58:46.936Z,16.65
2023-03-13T21:01:18.400Z,16.62
2023-03-13T21:03:49.373Z,16.60
2023-03-13T21:06:21.916Z,16.57
2023-03-13T21:08:52.693Z,16.54
2023-03-13T21:11:25.689Z,16.50
2023-03-13T21:13:55.664Z,16.47
2023-03-13T21:16:24.829Z,16.42
2023-03-13T21:18:54.096Z,16.40
2023-03-13T21:21:23.272Z,16.35
2023-03-13T21:23:53.288Z,16.30
2023-03-13T21:26:24.307Z,16.26
2023-03-13T21:28:54.276Z,16.22
2023-03-13T21:31:25.055Z,16.18
2023-03-13T21:33:53.648Z,16.16
2023-03-13T21:36:24.492Z,16.13
2023-03-13T21:38:53.759Z,16.12
2023-03-13T21:41:24.536Z,16.12
2023-03-13T21:43:53.172Z,16.13
2023-03-13T21:46:22.898Z,16.14
2023-03-13T21:48:51.504Z,16.14
2023-03-13T21:51:20.298Z,16.16
2023-03-13T21:53:48.736Z,16.16
2023-03-13T21:56:17.431Z,16.14
2023-03-13T21:58:47.350Z,16.12
2023-03-13T22:01:16.765Z,16.09
2023-03-13T22:03:45.426Z,16.06
2023-03-13T22:06:16.495Z,16.03
2023-03-13T22:08:45.305Z,16.03
2023-03-13T22:11:13.750Z,16.02
2023-03-13T22:13:42.162Z,16.00
2023-03-13T22:16:12.443Z,15.99
2023-03-13T22:18:43.224Z,15.97
2023-03-13T22:21:11.784Z,15.99
2023-03-13T22:23:40.499Z,15.98
2023-03-13T22:26:09.173Z,15.96
2023-03-13T22:28:39.171Z,15.94
2023-03-13T22:31:09.263Z,15.91
2023-03-13T22:33:39.398Z,15.88
2023-03-13T22:36:09.949Z,15.83
2023-03-13T22:38:39.955Z,15.78
2023-03-13T22:41:12.849Z,15.74
2023-03-13T22:43:41.333Z,15.69
2023-03-13T22:46:11.209Z,15.64
2023-03-13T22:48:42.401Z,15.59
2023-03-13T22:51:13.280Z,15.55
2023-03-13T22:53:43.167Z,15.51
2023-03-13T22:56:13.063Z,15.44
2023-03-13T22:58:42.720Z,15.42
2023-03-13T23:01:13.894Z,15.37
2023-03-13T23:03:44.643Z,15.34
2023-03-13T23:06:18.475Z,15.30
2023-03-13T23:08:47.269Z,15.28
2023-03-13T23:11:15.970Z,15.24
2023-03-13T23:13:44.492Z,15.21
2023-03-13T23:16:14.804Z,15.17
2023-03-13T23:18:44.712Z,15.14
2023-03-13T23:21:15.374Z,15.11
2023-03-13T23:23:44.410Z,15.10
2023-03-13T23:26:16.553Z,15.09
2023-03-13T23:28:45.090Z,15.07
2023-03-13T23:31:16.288Z,15.05
2023-03-13T23:33:47.085Z,15.03
2023-03-13T23:36:18.464Z,15.03
2023-03-13T23:38:51.551Z,15.02
2023-03-13T23:41:23.275Z,15.02
2023-03-13T23:43:51.782Z,15.02
2023-03-13T23:46:23.365Z,15.01
2023-03-13T23:48:57.357Z,14.99
2023-03-13T23:51:27.303Z,14.98
2023-03-13T23:53:55.809Z,14.95
2023-03-13T23:56:25.405Z,14.90
2023-03-13T23:58:55.092Z,14.86
